createdAt,value
2022-08-18T00:00:26.337Z,89.76
2022-08-18T00:01:26.695Z,89.56
2022-08-18T00:02:30.215Z,89.46
2022-08-18T00:03:56.064Z,89.56
2022-08-18T00:04:35.999Z,89.96
2022-08-18T00:05:30.627Z,90.06
2022-08-18T00:06:28.986Z,90.11
2022-08-18T00:07:28.340Z,90.11
2022-08-18T00:08:28.640Z,89.70
2022-08-18T00:09:32.155Z,90.00
2022-08-18T00:10:29.242Z,90.00
2022-08-18T00:11:41.026Z,89.80
2022-08-18T00:12:30.834Z,90.11
2022-08-18T00:13:30.077Z,90.30
2022-08-18T00:14:30.396Z,90.41
2022-08-18T00:15:30.686Z,90.50
2022-08-18T00:16:31.036Z,89.90
2022-08-18T00:17:31.357Z,89.90
2022-08-18T00:18:31.669Z,90.50
2022-08-18T00:19:46.896Z,90.70
2022-08-18T00:20:33.257Z,90.41
2022-08-18T00:21:32.681Z,90.50
2022-08-18T00:22:33.143Z,90.55
2022-08-18T00:23:33.238Z,90.85
2022-08-18T00:24:33.527Z,90.95
2022-08-18T00:25:33.840Z,91.05
2022-08-18T00:26:36.964Z,90.85
2022-08-18T00:27:34.384Z,90.45
2022-08-18T00:28:34.657Z,90.34
2022-08-18T00:29:34.990Z,90.75
2022-08-18T00:30:35.368Z,91.05
2022-08-18T00:31:35.557Z,91.55
2022-08-18T00:32:35.867Z,91.46
2022-08-18T00:33:36.166Z,91.25
2022-08-18T00:34:36.446Z,91.25
2022-08-18T00:35:36.691Z,91.35
2022-08-18T00:36:37.009Z,91.66
2022-08-18T00:37:37.343Z,91.86
2022-08-18T00:38:37.559Z,91.96
2022-08-18T00:39:40.637Z,91.96
2022-08-18T00:40:39.051Z,91.86
2022-08-18T00:41:38.326Z,91.90
2022-08-18T00:42:38.593Z,91.70
2022-08-18T00:43:38.807Z,92.30
2022-08-18T00:44:39.041Z,92.30
2022-08-18T00:45:39.279Z,92.10
2022-08-18T00:46:39.606Z,92.10
2022-08-18T00:47:52.439Z,92.20
2022-08-18T00:48:41.260Z,92.71
2022-08-18T00:49:41.554Z,92.50
2022-08-18T00:50:40.850Z,92.50
2022-08-18T00:51:41.088Z,92.40
2022-08-18T00:52:41.330Z,92.50
2022-08-18T00:53:41.584Z,92.80
2022-08-18T00:54:41.871Z,92.91
2022-08-18T00:55:43.809Z,92.40
2022-08-18T00:56:43.480Z,92.91
2022-08-18T00:57:42.683Z,92.71
2022-08-18T00:58:42.900Z,92.80
2022-08-18T00:59:43.291Z,92.25
2022-08-18T01:00:43.520Z,92.45
2022-08-18T01:01:43.744Z,92.14
2022-08-18T01:02:44.022Z,91.85
2022-08-18T01:03:44.223Z,92.45
2022-08-18T01:04:44.569Z,92.55
2022-08-18T01:05:44.801Z,92.35
2022-08-18T01:06:45.126Z,92.95
2022-08-18T01:07:45.518Z,92.75
2022-08-18T01:08:45.749Z,92.45
2022-08-18T01:09:46.080Z,92.75
2022-08-18T01:10:46.290Z,92.45
2022-08-18T01:11:46.612Z,92.35
2022-08-18T01:12:47.298Z,92.45
2022-08-18T01:13:47.222Z,92.59
2022-08-18T01:14:47.468Z,92.59
2022-08-18T01:15:47.692Z,93.30
2022-08-18T01:16:56.675Z,93.10
2022-08-18T01:17:49.268Z,94.00
2022-08-18T01:18:48.586Z,94.20
2022-08-18T01:19:48.857Z,94.20
2022-08-18T01:20:49.094Z,94.00
2022-08-18T01:21:49.301Z,94.20
2022-08-18T01:22:49.655Z,94.60
2022-08-18T01:23:49.884Z,94.31
2022-08-18T01:24:50.106Z,94.40
2022-08-18T01:25:50.475Z,94.71
2022-08-18T01:26:50.741Z,94.40
2022-08-18T01:27:51.171Z,94.91
2022-08-18T01:28:51.307Z,94.81
2022-08-18T01:29:51.576Z,94.71
2022-08-18T01:30:51.812Z,94.60
2022-08-18T01:31:54.335Z,94.60
2022-08-18T01:32:52.374Z,95.11
2022-08-18T01:33:52.696Z,94.60
2022-08-18T01:34:52.902Z,94.51
2022-08-18T01:35:53.243Z,94.60
2022-08-18T01:36:53.605Z,94.60
2022-08-18T01:37:53.863Z,94.81
2022-08-18T01:38:54.125Z,95.01
2022-08-18T01:41:17.569Z,95.41
2022-08-18T01:41:23.804Z,95.41
2022-08-18T01:41:55.842Z,95.31
2022-08-18T01:42:55.164Z,95.11
2022-08-18T01:43:55.440Z,95.01
2022-08-18T01:44:55.686Z,95.51
2022-08-18T01:45:55.896Z,95.92
2022-08-18T01:46:56.267Z,96.01
2022-08-18T01:47:56.519Z,96.22
2022-08-18T01:48:56.722Z,96.12
2022-08-18T01:49:57.073Z,96.01
2022-08-18T01:50:57.369Z,96.32
2022-08-18T01:51:57.633Z,96.12
2022-08-18T01:52:57.902Z,95.76
2022-08-18T01:53:58.175Z,95.46
2022-08-18T01:54:58.398Z,95.76
2022-08-18T01:55:58.730Z,95.66
2022-08-18T01:56:59.078Z,96.06
2022-08-18T01:57:59.362Z,95.86
2022-08-18T01:58:59.608Z,96.47
2022-08-18T01:59:59.836Z,96.77
2022-08-18T02:01:00.042Z,96.67
2022-08-18T02:02:00.420Z,96.36
2022-08-18T02:03:02.718Z,96.87
2022-08-18T02:04:23.714Z,96.97
2022-08-18T02:05:02.160Z,96.56
2022-08-18T02:06:01.434Z,96.97
2022-08-18T02:07:01.759Z,96.47
2022-08-18T02:08:02.053Z,96.16
2022-08-18T02:09:02.246Z,96.26
2022-08-18T02:10:02.561Z,96.47
2022-08-18T02:11:02.797Z,96.77
2022-08-18T02:12:03.102Z,96.67
2022-08-18T02:13:03.353Z,96.77
2022-08-18T02:14:03.619Z,96.77
2022-08-18T02:15:03.835Z,97.07
2022-08-18T02:16:04.191Z,96.56
2022-08-18T02:17:04.442Z,96.26
2022-08-18T02:18:04.676Z,96.31
2022-08-18T02:19:04.901Z,96.51
2022-08-18T02:20:05.210Z,96.51
2022-08-18T02:21:05.483Z,96.41
2022-08-18T02:22:05.722Z,97.22
2022-08-18T02:23:05.929Z,97.52
2022-08-18T02:24:06.291Z,97.72
2022-08-18T02:25:06.707Z,97.62
2022-08-18T02:26:06.826Z,97.92
2022-08-18T02:27:07.001Z,97.82
2022-08-18T02:28:07.329Z,97.62
2022-08-18T02:29:07.693Z,97.42
2022-08-18T02:30:07.967Z,97.42
2022-08-18T02:31:08.181Z,97.22
2022-08-18T02:32:08.484Z,97.12
2022-08-18T02:33:08.729Z,97.12
2022-08-18T02:34:09.005Z,97.12
2022-08-18T02:35:11.746Z,97.22
2022-08-18T02:36:09.574Z,97.12
2022-08-18T02:37:14.392Z,97.52
2022-08-18T02:38:11.062Z,97.82
2022-08-18T02:39:11.324Z,97.72
2022-08-18T02:40:10.721Z,97.72
2022-08-18T02:41:10.902Z,98.07
2022-08-18T02:42:11.096Z,98.27
2022-08-18T02:43:11.475Z,98.27
2022-08-18T02:44:11.715Z,98.37
2022-08-18T02:45:11.911Z,98.27
2022-08-18T02:46:12.337Z,98.07
2022-08-18T02:47:22.387Z,98.07
2022-08-18T02:48:12.829Z,98.17
2022-08-18T02:49:15.769Z,97.97
2022-08-18T02:50:14.068Z,97.87
2022-08-18T02:51:13.682Z,97.77
2022-08-18T02:52:13.998Z,97.67
2022-08-18T02:53:14.337Z,97.56
2022-08-18T02:54:14.671Z,97.47
2022-08-18T02:55:14.989Z,97.97
2022-08-18T02:56:15.328Z,97.77
2022-08-18T02:57:15.649Z,98.07
2022-08-18T02:58:15.989Z,97.97
2022-08-18T02:59:16.262Z,97.87
2022-08-18T03:00:19.036Z,97.87
2022-08-18T03:01:16.972Z,98.27
2022-08-18T03:02:17.237Z,98.27
2022-08-18T03:03:17.569Z,98.17
2022-08-18T03:04:17.889Z,98.37
2022-08-18T03:05:18.221Z,98.37
2022-08-18T03:06:18.544Z,98.68
2022-08-18T03:07:18.867Z,98.58
2022-08-18T03:08:19.200Z,98.58
2022-08-18T03:09:19.543Z,98.78
2022-08-18T03:10:32.386Z,98.68
2022-08-18T03:11:21.163Z,98.68
2022-08-18T03:12:20.402Z,99.38
2022-08-18T03:13:20.744Z,99.99
2022-08-18T03:14:21.062Z,99.88
2022-08-18T03:15:21.393Z,99.88
2022-08-18T03:16:21.720Z,99.48
2022-08-18T03:17:22.055Z,99.18
2022-08-18T03:18:22.401Z,98.98
2022-08-18T03:19:22.709Z,98.88
2022-08-18T03:20:31.051Z,98.88
2022-08-18T03:21:24.344Z,99.28
2022-08-18T03:22:27.265Z,99.99
2022-08-18T03:23:30.192Z,99.99
2022-08-18T03:24:25.213Z,99.99
2022-08-18T03:25:24.496Z,99.99
2022-08-18T03:26:24.832Z,99.99
2022-08-18T03:27:25.175Z,99.99
2022-08-18T03:28:25.481Z,99.94
2022-08-18T03:29:31.685Z,99.84
2022-08-18T03:30:27.082Z,99.99
2022-08-18T03:31:28.042Z,99.99
2022-08-18T03:32:26.661Z,99.99
2022-08-18T03:33:26.993Z,99.99
2022-08-18T03:34:27.328Z,99.89
2022-08-18T03:35:27.652Z,99.89
2022-08-18T03:36:27.972Z,99.69
2022-08-18T03:37:28.305Z,99.49
2022-08-18T03:38:28.657Z,99.08
2022-08-18T03:39:29.072Z,99.19
2022-08-18T03:40:29.242Z,98.99
2022-08-18T03:41:44.094Z,98.79
2022-08-18T03:42:30.846Z,98.68
2022-08-18T03:43:50.210Z,98.48
2022-08-18T03:44:31.372Z,99.08
2022-08-18T03:45:30.587Z,98.88
2022-08-18T03:46:30.927Z,98.79
2022-08-18T03:47:31.246Z,98.58
2022-08-18T03:48:31.584Z,98.18
2022-08-18T03:49:31.926Z,97.98
2022-08-18T03:50:32.237Z,97.78
2022-08-18T03:51:32.563Z,97.62
2022-08-18T03:52:32.885Z,97.42
2022-08-18T03:53:33.224Z,97.32
2022-08-18T03:54:33.545Z,97.32
2022-08-18T03:55:33.873Z,97.62
2022-08-18T03:56:34.204Z,98.02
2022-08-18T03:57:34.545Z,98.53
2022-08-18T03:58:34.777Z,98.63
2022-08-18T03:59:35.118Z,98.73
2022-08-18T04:00:35.445Z,98.93
2022-08-18T04:01:35.800Z,98.83
2022-08-18T04:02:36.106Z,98.43
2022-08-18T04:03:36.459Z,98.27
2022-08-18T04:04:36.745Z,97.56
2022-08-18T04:05:38.014Z,97.27
2022-08-18T04:06:37.264Z,97.36
2022-08-18T04:07:37.605Z,97.47
2022-08-18T04:08:37.981Z,98.07
2022-08-18T04:09:38.285Z,98.98
2022-08-18T04:10:38.635Z,99.18
2022-08-18T04:11:38.988Z,99.38
2022-08-18T04:12:39.242Z,99.38
2022-08-18T04:13:39.568Z,99.38
2022-08-18T04:14:39.873Z,99.48
2022-08-18T04:15:40.099Z,99.68
2022-08-18T04:16:40.329Z,99.79
2022-08-18T04:18:03.187Z,99.79
2022-08-18T04:18:41.866Z,99.88
2022-08-18T04:19:41.110Z,99.79
2022-08-18T04:20:59.171Z,99.68
2022-08-18T04:21:42.630Z,99.38
2022-08-18T04:22:41.896Z,99.18
2022-08-18T04:23:43.720Z,99.04
2022-08-18T04:24:42.467Z,98.83
2022-08-18T04:25:42.698Z,98.93
2022-08-18T04:26:42.949Z,99.13
2022-08-18T04:27:43.168Z,99.04
2022-08-18T04:28:43.430Z,98.93
2022-08-18T04:29:43.653Z,99.94
2022-08-18T04:30:43.888Z,99.94
2022-08-18T04:31:44.141Z,99.99
2022-08-18T04:32:44.381Z,99.94
2022-08-18T04:33:44.621Z,99.99
2022-08-18T04:34:44.861Z,99.99
2022-08-18T04:35:45.107Z,99.84
2022-08-18T04:36:45.348Z,99.94
2022-08-18T04:37:45.588Z,99.89
2022-08-18T04:38:45.853Z,99.79
2022-08-18T04:39:46.224Z,99.79
2022-08-18T04:40:46.408Z,99.59
2022-08-18T04:41:46.666Z,99.59
2022-08-18T04:42:46.880Z,99.39
2022-08-18T04:43:47.143Z,99.19
2022-08-18T04:44:47.369Z,99.19
2022-08-18T04:45:47.610Z,99.19
2022-08-18T04:46:47.868Z,99.08
2022-08-18T04:47:48.280Z,98.99
2022-08-18T04:48:48.488Z,98.99
2022-08-18T04:49:48.704Z,98.68
2022-08-18T04:50:48.951Z,98.74
2022-08-18T04:52:36.335Z,98.54
2022-08-18T04:52:50.477Z,98.44
2022-08-18T04:53:49.743Z,98.24
2022-08-18T04:54:50.010Z,98.24
2022-08-18T04:55:50.242Z,98.03
2022-08-18T04:56:50.483Z,97.78
2022-08-18T04:57:50.943Z,97.78
2022-08-18T04:58:51.014Z,97.69
2022-08-18T04:59:51.218Z,97.28
2022-08-18T05:00:51.521Z,97.24
2022-08-18T05:01:51.723Z,97.03
2022-08-18T05:02:51.976Z,96.73
2022-08-18T05:03:52.222Z,96.33
2022-08-18T05:04:52.460Z,96.03
2022-08-18T05:05:52.709Z,95.88
2022-08-18T05:06:52.951Z,95.78
2022-08-18T05:07:53.520Z,95.38
2022-08-18T05:08:53.531Z,95.07
2022-08-18T05:09:53.741Z,94.87
2022-08-18T05:10:54.033Z,94.47
2022-08-18T05:11:54.290Z,94.57
2022-08-18T05:12:54.522Z,94.47
2022-08-18T05:13:54.774Z,94.57
2022-08-18T05:14:55.003Z,94.57
2022-08-18T05:16:10.141Z,94.67
2022-08-18T05:16:56.564Z,94.27
2022-08-18T05:17:56.987Z,94.37
2022-08-18T05:18:56.104Z,95.07
2022-08-18T05:19:56.301Z,94.67
2022-08-18T05:20:56.536Z,94.87
2022-08-18T05:21:57.669Z,94.87
2022-08-18T05:22:57.081Z,94.67
2022-08-18T05:23:57.324Z,94.67
2022-08-18T05:24:57.566Z,94.57
2022-08-18T05:25:57.805Z,94.67
2022-08-18T05:26:58.056Z,94.67
2022-08-18T05:27:58.292Z,94.67
2022-08-18T05:29:18.186Z,94.67
2022-08-18T05:29:59.833Z,94.67
2022-08-18T05:31:00.447Z,94.57
2022-08-18T05:31:59.338Z,94.37
2022-08-18T05:32:59.564Z,93.87
2022-08-18T05:33:59.820Z,93.77
2022-08-18T05:35:00.161Z,93.66
2022-08-18T05:36:00.394Z,93.66
2022-08-18T05:37:00.647Z,93.77
2022-08-18T05:38:00.887Z,93.87
2022-08-18T05:39:01.148Z,93.66
2022-08-18T05:40:01.537Z,93.66
2022-08-18T05:41:01.749Z,93.46
2022-08-18T05:42:02.015Z,93.46
2022-08-18T05:43:02.329Z,93.46
2022-08-18T05:44:02.578Z,93.52
2022-08-18T05:45:02.888Z,93.52
2022-08-18T05:46:03.138Z,93.22
2022-08-18T05:47:03.380Z,93.22
2022-08-18T05:48:03.610Z,93.22
2022-08-18T05:49:03.861Z,93.22
2022-08-18T05:50:04.099Z,93.22
2022-08-18T05:51:04.338Z,93.42
2022-08-18T05:52:04.645Z,93.73
2022-08-18T05:53:05.589Z,93.52
2022-08-18T05:54:06.196Z,93.32
2022-08-18T05:55:05.447Z,93.22
2022-08-18T05:56:05.704Z,93.32
2022-08-18T05:57:05.930Z,93.62
2022-08-18T05:58:06.171Z,93.42
2022-08-18T05:59:06.428Z,93.52
2022-08-18T06:00:06.748Z,93.52
2022-08-18T06:01:07.002Z,93.32
2022-08-18T06:02:07.218Z,93.32
2022-08-18T06:03:07.528Z,93.18
2022-08-18T06:04:07.759Z,92.97
2022-08-18T06:05:07.951Z,93.08
2022-08-18T06:06:08.203Z,93.38
2022-08-18T06:07:09.487Z,93.28
2022-08-18T06:08:08.742Z,93.28
2022-08-18T06:09:09.011Z,93.18
2022-08-18T06:10:09.381Z,93.18
2022-08-18T06:11:17.421Z,93.18
2022-08-18T06:12:10.871Z,93.18
2022-08-18T06:13:10.121Z,93.18
2022-08-18T06:14:10.384Z,93.18
2022-08-18T06:15:10.711Z,93.08
2022-08-18T06:16:11.033Z,93.68
2022-08-18T06:17:11.357Z,93.78
2022-08-18T06:18:11.601Z,93.78
2022-08-18T06:19:11.857Z,93.58
2022-08-18T06:20:12.159Z,93.58
2022-08-18T06:21:12.416Z,93.48
2022-08-18T06:22:12.652Z,93.88
2022-08-18T06:23:12.879Z,93.68
2022-08-18T06:24:13.150Z,93.58
2022-08-18T06:25:13.449Z,93.18
2022-08-18T06:26:13.707Z,93.48
2022-08-18T06:27:13.951Z,93.68
2022-08-18T06:28:14.191Z,93.88
2022-08-18T06:29:14.410Z,93.88
2022-08-18T06:30:14.641Z,93.68
2022-08-18T06:31:14.869Z,93.78
2022-08-18T06:32:15.110Z,94.08
2022-08-18T06:33:15.348Z,93.98
2022-08-18T06:34:15.614Z,93.98
2022-08-18T06:35:15.934Z,94.18
2022-08-18T06:36:19.227Z,94.08
2022-08-18T06:37:16.495Z,94.38
2022-08-18T06:38:16.729Z,94.28
2022-08-18T06:39:16.984Z,94.28
2022-08-18T06:40:17.378Z,94.38
2022-08-18T06:41:41.506Z,94.59
2022-08-18T06:42:18.895Z,94.89
2022-08-18T06:43:18.149Z,94.79
2022-08-18T06:44:18.411Z,94.89
2022-08-18T06:45:18.711Z,95.09
2022-08-18T06:46:18.942Z,95.18
2022-08-18T06:47:19.173Z,94.98
2022-08-18T06:48:19.425Z,95.39
2022-08-18T06:49:19.697Z,95.49
2022-08-18T06:50:20.027Z,95.49
2022-08-18T06:51:20.273Z,95.79
2022-08-18T06:52:20.503Z,95.79
2022-08-18T06:53:28.110Z,95.89
2022-08-18T06:54:22.058Z,95.69
2022-08-18T06:55:21.293Z,95.99
2022-08-18T06:56:26.220Z,96.09
2022-08-18T06:57:22.837Z,95.89
2022-08-18T06:58:22.116Z,95.99
2022-08-18T06:59:22.377Z,96.30
2022-08-18T07:00:22.684Z,96.19
2022-08-18T07:01:23.026Z,96.30
2022-08-18T07:02:23.178Z,96.50
2022-08-18T07:03:23.406Z,96.50
2022-08-18T07:04:23.688Z,96.50
2022-08-18T07:05:24.003Z,96.80
2022-08-18T07:06:24.238Z,96.80
2022-08-18T07:07:24.506Z,96.89
2022-08-18T07:08:24.756Z,96.69
2022-08-18T07:09:24.994Z,96.80
2022-08-18T07:10:25.325Z,96.80
2022-08-18T07:11:25.530Z,96.69
2022-08-18T07:12:30.538Z,96.80
2022-08-18T07:13:27.068Z,96.69
2022-08-18T07:14:26.336Z,96.69
2022-08-18T07:15:26.588Z,96.69
2022-08-18T07:16:47.374Z,96.80
2022-08-18T07:17:42.194Z,97.00
2022-08-18T07:18:28.467Z,97.00
2022-08-18T07:19:27.779Z,97.00
2022-08-18T07:20:27.993Z,97.00
2022-08-18T07:21:28.258Z,96.89
2022-08-18T07:22:39.354Z,96.89
2022-08-18T07:23:29.827Z,96.65
2022-08-18T07:24:29.107Z,96.25
2022-08-18T07:25:29.380Z,95.80
2022-08-18T07:26:29.637Z,95.90
2022-08-18T07:27:29.917Z,95.70
2022-08-18T07:28:30.180Z,95.36
2022-08-18T07:29:30.434Z,95.45
2022-08-18T07:30:30.671Z,95.05
2022-08-18T07:31:30.965Z,94.35
2022-08-18T07:32:31.200Z,93.85
2022-08-18T07:33:31.422Z,93.44
2022-08-18T07:34:31.751Z,93.20
2022-08-18T07:35:32.081Z,92.80
2022-08-18T07:36:32.361Z,92.80
2022-08-18T07:37:32.575Z,92.20
2022-08-18T07:38:43.773Z,92.10
2022-08-18T07:39:33.131Z,92.00
2022-08-18T07:40:33.349Z,91.89
2022-08-18T07:41:33.628Z,92.00
2022-08-18T07:43:00.637Z,91.96
2022-08-18T07:43:35.176Z,92.05
2022-08-18T07:44:34.524Z,92.05
2022-08-18T07:45:34.709Z,92.15
2022-08-18T07:46:34.970Z,91.85
2022-08-18T07:47:35.235Z,91.55
2022-08-18T07:48:38.769Z,91.35
2022-08-18T07:49:36.138Z,91.11
2022-08-18T07:50:57.940Z,91.11
2022-08-18T07:51:37.671Z,91.01
2022-08-18T07:52:46.941Z,90.81
2022-08-18T07:53:37.981Z,90.70
2022-08-18T07:54:52.760Z,90.50
2022-08-18T07:55:38.637Z,90.41
2022-08-18T07:56:37.947Z,90.31
2022-08-18T07:57:41.968Z,90.00
2022-08-18T07:58:38.481Z,90.00
2022-08-18T07:59:38.760Z,90.20
2022-08-18T08:00:58.151Z,89.90
2022-08-18T08:01:40.349Z,90.31
2022-08-18T08:02:39.586Z,90.31
2022-08-18T08:03:39.896Z,89.90
2022-08-18T08:04:40.180Z,89.81
2022-08-18T08:05:40.377Z,89.46
2022-08-18T08:06:40.650Z,89.46
2022-08-18T08:07:40.890Z,89.06
2022-08-18T08:08:41.189Z,88.52
2022-08-18T08:09:41.512Z,88.12
2022-08-18T08:10:41.728Z,88.21
2022-08-18T08:11:44.607Z,87.98
2022-08-18T08:12:42.342Z,87.48
2022-08-18T08:13:55.355Z,86.93
2022-08-18T08:14:43.901Z,86.43
2022-08-18T08:15:43.214Z,86.03
2022-08-18T08:16:43.467Z,85.99
2022-08-18T08:17:43.695Z,85.99
2022-08-18T08:18:43.952Z,85.83
2022-08-18T08:19:59.921Z,86.13
2022-08-18T08:20:45.452Z,86.13
2022-08-18T08:21:44.731Z,86.03
2022-08-18T08:22:46.028Z,86.43
2022-08-18T08:23:45.472Z,86.43
2022-08-18T08:24:45.553Z,86.23
2022-08-18T08:25:47.358Z,85.89
2022-08-18T08:26:46.194Z,85.59
2022-08-18T08:27:46.487Z,85.09
2022-08-18T08:28:46.726Z,85.25
2022-08-18T08:29:46.959Z,85.15
2022-08-18T08:30:47.162Z,84.05
2022-08-18T08:31:47.484Z,83.61
2022-08-18T08:32:47.705Z,83.41
2022-08-18T08:33:47.993Z,82.97
2022-08-18T08:34:48.242Z,82.87
2022-08-18T08:35:50.453Z,82.47
2022-08-18T08:36:48.696Z,82.47
2022-08-18T08:37:48.972Z,82.64
2022-08-18T08:38:49.208Z,82.64
2022-08-18T08:39:49.492Z,82.53
2022-08-18T08:40:49.737Z,81.73
2022-08-18T08:41:49.970Z,81.34
2022-08-18T08:42:50.222Z,81.54
2022-08-18T08:43:50.461Z,81.43
2022-08-18T08:44:59.060Z,81.84
2022-08-18T08:45:52.091Z,81.63
2022-08-18T08:46:51.356Z,81.63
2022-08-18T08:47:51.814Z,81.84
2022-08-18T08:48:51.854Z,81.73
2022-08-18T08:49:54.729Z,81.13
2022-08-18T08:50:53.397Z,80.80
2022-08-18T08:51:52.654Z,80.10
2022-08-18T08:52:56.999Z,80.60
2022-08-18T08:53:53.231Z,80.30
2022-08-18T08:54:53.498Z,80.30
2022-08-18T08:55:55.060Z,79.90
2022-08-18T08:56:53.964Z,79.90
2022-08-18T08:57:54.440Z,79.86
2022-08-18T08:58:54.503Z,79.66
2022-08-18T08:59:54.800Z,79.46
2022-08-18T09:00:55.027Z,79.72
2022-08-18T09:01:55.316Z,79.33
2022-08-18T09:02:55.535Z,78.23
2022-08-18T09:03:55.799Z,78.63
2022-08-18T09:05:08.754Z,78.73
2022-08-18T09:05:57.585Z,78.29
2022-08-18T09:06:56.727Z,78.19
2022-08-18T09:07:56.987Z,78.29
2022-08-18T09:08:57.333Z,77.93
2022-08-18T09:09:57.615Z,78.53
2022-08-18T09:10:57.831Z,78.92
2022-08-18T09:11:58.101Z,78.67
2022-08-18T09:12:58.331Z,79.40
2022-08-18T09:13:58.602Z,79.64
2022-08-18T09:14:58.851Z,80.04
2022-08-18T09:15:59.058Z,80.24
2022-08-18T09:16:59.321Z,80.44
2022-08-18T09:17:59.559Z,80.74
2022-08-18T09:18:59.822Z,81.37
2022-08-18T09:20:00.088Z,81.27
2022-08-18T09:21:00.407Z,81.37
2022-08-18T09:22:00.669Z,81.18
2022-08-18T09:23:00.920Z,81.13
2022-08-18T09:24:01.183Z,80.54
2022-08-18T09:25:01.454Z,80.34
2022-08-18T09:26:01.685Z,80.24
2022-08-18T09:27:01.964Z,80.40
2022-08-18T09:28:11.292Z,79.80
2022-08-18T09:29:03.555Z,79.46
2022-08-18T09:30:02.867Z,79.43
2022-08-18T09:31:03.076Z,78.73
2022-08-18T09:32:03.321Z,78.19
2022-08-18T09:33:03.607Z,77.95
2022-08-18T09:34:10.953Z,77.06
2022-08-18T09:35:05.487Z,76.92
2022-08-18T09:36:04.372Z,76.59
2022-08-18T09:37:05.695Z,74.76
2022-08-18T09:38:04.976Z,73.97
2022-08-18T09:39:05.275Z,73.54
2022-08-18T09:40:12.809Z,73.93
2022-08-18T09:41:06.894Z,73.20
2022-08-18T09:42:06.183Z,72.41
2022-08-18T09:43:08.982Z,71.71
2022-08-18T09:44:06.796Z,72.20
2022-08-18T09:45:07.993Z,72.50
2022-08-18T09:46:07.306Z,73.50
2022-08-18T09:47:07.569Z,73.60
2022-08-18T09:48:10.118Z,74.09
2022-08-18T09:49:08.436Z,73.93
2022-08-18T09:50:20.528Z,72.44
2022-08-18T09:51:09.571Z,73.57
2022-08-18T09:52:08.860Z,74.56
2022-08-18T09:53:09.127Z,75.06
2022-08-18T09:54:09.489Z,73.70
2022-08-18T09:55:09.716Z,74.00
2022-08-18T09:56:09.977Z,74.50
2022-08-18T09:57:10.209Z,74.00
2022-08-18T09:58:10.472Z,75.20
2022-08-18T09:59:11.126Z,75.63
2022-08-18T10:00:11.016Z,76.03
2022-08-18T10:01:11.326Z,76.66
2022-08-18T10:02:20.075Z,76.56
2022-08-18T10:03:12.886Z,77.16
2022-08-18T10:04:12.213Z,77.20
2022-08-18T10:05:12.485Z,77.50
2022-08-18T10:06:12.942Z,77.93
2022-08-18T10:07:12.978Z,78.43
2022-08-18T10:08:13.246Z,78.47
2022-08-18T10:09:26.826Z,78.47
2022-08-18T10:10:58.974Z,77.97
2022-08-18T10:11:15.081Z,79.27
2022-08-18T10:12:15.943Z,79.06
2022-08-18T10:13:14.659Z,79.57
2022-08-18T10:14:14.897Z,79.96
2022-08-18T10:15:15.255Z,80.06
2022-08-18T10:16:16.572Z,79.66
2022-08-18T10:17:24.483Z,79.16
2022-08-18T10:18:17.215Z,80.06
2022-08-18T10:19:16.457Z,79.96
2022-08-18T10:20:26.277Z,79.46
2022-08-18T10:21:18.037Z,79.57
2022-08-18T10:22:17.292Z,79.76
2022-08-18T10:23:18.613Z,79.43
2022-08-18T10:24:36.397Z,78.13
2022-08-18T10:25:22.826Z,78.63
2022-08-18T10:26:18.479Z,77.59
2022-08-18T10:27:18.703Z,77.69
2022-08-18T10:28:18.983Z,77.20
2022-08-18T10:29:19.210Z,76.90
2022-08-18T10:30:19.504Z,76.46
2022-08-18T10:32:21.047Z,76.43
2022-08-18T10:33:20.343Z,75.33
2022-08-18T10:34:20.575Z,75.40
2022-08-18T10:35:24.443Z,75.49
2022-08-18T10:36:22.175Z,74.56
2022-08-18T10:37:21.457Z,74.26
2022-08-18T10:38:21.702Z,73.73
2022-08-18T10:39:21.912Z,73.43
2022-08-18T10:40:22.235Z,73.54
2022-08-18T10:41:22.446Z,73.50
2022-08-18T10:42:22.713Z,72.20
2022-08-18T10:44:30.852Z,72.37
2022-08-18T10:46:27.058Z,71.11
2022-08-18T10:47:24.930Z,71.51
2022-08-18T10:48:26.777Z,72.20
2022-08-18T10:49:24.583Z,72.37
2022-08-18T10:50:24.847Z,71.58
2022-08-18T10:51:25.088Z,71.54
2022-08-18T10:52:25.441Z,69.95
2022-08-18T10:53:39.590Z,70.65
2022-08-18T10:54:26.989Z,70.42
2022-08-18T10:55:26.316Z,70.12
2022-08-18T10:56:27.618Z,69.98
2022-08-18T10:57:26.906Z,69.26
2022-08-18T10:58:28.099Z,68.63
2022-08-18T10:59:28.091Z,67.28
2022-08-18T11:00:27.853Z,67.38
2022-08-18T11:01:30.819Z,67.64
2022-08-18T11:02:28.348Z,67.24
2022-08-18T11:03:50.674Z,66.82
2022-08-18T11:05:31.802Z,65.80
2022-08-18T11:06:29.472Z,66.32
2022-08-18T11:07:31.033Z,66.91
2022-08-18T11:08:31.710Z,67.18
2022-08-18T11:09:30.387Z,66.95
2022-08-18T11:10:30.968Z,64.48
2022-08-18T11:12:32.269Z,65.14
2022-08-18T11:13:31.593Z,63.56
2022-08-18T11:14:31.841Z,62.47
2022-08-18T11:15:38.323Z,65.20
2022-08-18T11:16:33.446Z,64.22
2022-08-18T11:17:32.738Z,62.60
2022-08-18T11:18:33.018Z,62.08
2022-08-18T11:19:34.329Z,61.00
2022-08-18T11:20:34.611Z,60.28
2022-08-18T11:21:33.832Z,60.43
2022-08-18T11:22:35.536Z,60.93
2022-08-18T11:23:34.546Z,61.32
2022-08-18T11:24:34.782Z,62.01
2022-08-18T11:25:35.107Z,61.65
2022-08-18T11:26:35.270Z,61.94
2022-08-18T11:27:35.863Z,61.25
2022-08-18T11:28:38.950Z,62.79
2022-08-18T11:29:37.110Z,63.55
2022-08-18T11:30:36.389Z,64.07
2022-08-18T11:31:36.633Z,65.39
2022-08-18T11:32:36.901Z,65.59
2022-08-18T11:33:38.227Z,66.02
2022-08-18T11:34:37.509Z,66.65
2022-08-18T11:35:37.805Z,67.57
2022-08-18T11:36:38.030Z,67.77
2022-08-18T11:38:39.593Z,68.76
2022-08-18T11:39:38.942Z,69.46
2022-08-18T11:42:40.748Z,67.77
2022-08-18T11:43:42.120Z,68.53
2022-08-18T11:44:40.357Z,69.32
2022-08-18T11:45:40.632Z,69.53
2022-08-18T11:46:40.892Z,69.26
2022-08-18T11:47:41.223Z,70.59
2022-08-18T11:48:51.743Z,71.18
2022-08-18T11:49:42.836Z,71.08
2022-08-18T11:50:42.137Z,70.78
2022-08-18T11:51:43.445Z,70.19
2022-08-18T11:52:42.724Z,70.78
2022-08-18T11:53:43.043Z,71.08
2022-08-18T11:54:50.497Z,70.68
2022-08-18T11:56:44.878Z,70.15
2022-08-18T11:57:47.011Z,70.06
2022-08-18T11:58:45.464Z,69.96
2022-08-18T11:59:54.503Z,69.85
2022-08-18T12:00:46.156Z,69.23
2022-08-18T12:01:45.425Z,68.73
2022-08-18T12:02:45.719Z,68.73
2022-08-18T12:03:45.945Z,68.20
2022-08-18T12:04:46.217Z,67.80
2022-08-18T12:05:53.940Z,67.41
2022-08-18T12:06:47.799Z,67.83
2022-08-18T12:08:57.393Z,68.66
2022-08-18T12:10:19.763Z,68.86
2022-08-18T12:10:49.009Z,69.26
2022-08-18T12:11:48.239Z,68.86
2022-08-18T12:12:51.798Z,69.29
2022-08-18T12:13:48.730Z,69.62
2022-08-18T12:14:48.968Z,70.56
2022-08-18T12:15:49.304Z,71.28
2022-08-18T12:18:51.081Z,71.22
2022-08-18T12:19:50.350Z,71.22
2022-08-18T12:20:51.412Z,71.28
2022-08-18T12:21:50.831Z,70.89
2022-08-18T12:22:52.134Z,71.78
2022-08-18T12:23:52.223Z,70.06
2022-08-18T12:24:51.724Z,70.95
2022-08-18T12:25:52.164Z,71.75
2022-08-18T12:26:52.242Z,70.06
2022-08-18T12:27:52.586Z,70.06
2022-08-18T12:28:52.842Z,69.26
2022-08-18T12:29:53.283Z,71.61
2022-08-18T12:30:56.593Z,70.42
2022-08-18T12:31:53.646Z,69.79
2022-08-18T12:33:05.492Z,70.39
2022-08-18T12:34:00.923Z,69.26
2022-08-18T12:34:55.433Z,69.56
2022-08-18T12:35:54.726Z,68.73
2022-08-18T12:36:54.954Z,68.63
2022-08-18T12:38:56.767Z,67.41
2022-08-18T12:39:55.848Z,66.78
2022-08-18T12:40:56.064Z,67.47
2022-08-18T12:41:56.336Z,67.35
2022-08-18T12:42:56.907Z,66.46
2022-08-18T12:44:58.246Z,66.91
2022-08-18T12:45:57.527Z,65.63
2022-08-18T12:46:58.008Z,65.53
2022-08-18T12:47:58.091Z,65.43
2022-08-18T12:48:58.331Z,64.94
2022-08-18T12:49:58.594Z,64.74
2022-08-18T12:51:00.806Z,65.30
2022-08-18T12:52:00.278Z,64.61
2022-08-18T12:52:59.567Z,64.11
2022-08-18T12:54:00.358Z,64.70
2022-08-18T12:55:00.101Z,64.51
2022-08-18T12:56:00.366Z,64.81
2022-08-18T12:57:00.609Z,64.41
2022-08-18T12:58:00.901Z,64.21
2022-08-18T12:59:01.155Z,64.51
2022-08-18T13:00:01.429Z,63.52
2022-08-18T13:01:01.819Z,64.51
2022-08-18T13:02:01.981Z,63.82
2022-08-18T13:03:02.243Z,63.62
2022-08-18T13:05:06.090Z,64.94
2022-08-18T13:06:03.175Z,64.34
2022-08-18T13:07:05.856Z,63.15
2022-08-18T13:08:04.594Z,63.75
2022-08-18T13:09:03.947Z,63.95
2022-08-18T13:10:05.532Z,64.94
2022-08-18T13:11:14.963Z,66.02